sensor_id;sensor_type;location;lat;lon;timestamp;pressure;altitude;pressure_sealevel;temperature;humidity
76680;BME280;65597;51.520;-0.224;2023-04-25T00:00:38;101501.51;;;9.11;38.12
76680;BME280;65597;51.520;-0.224;2023-04-25T00:03:02;101501.50;;;8.98;37.01
76680;BME280;65597;51.520;-0.224;2023-04-25T00:05:27;101501.97;;;9.22;39.25
76680;BME280;65597;51.520;-0.224;2023-04-25T00:07:53;101499.13;;;9.20;38.51
76680;BME280;65597;51.520;-0.224;2023-04-25T00:10:20;101504.04;;;9.35;38.72
76680;BME280;65597;51.520;-0.224;2023-04-25T00:12:45;101498.68;;;9.40;37.75
76680;BME280;65597;51.520;-0.224;2023-04-25T00:15:10;101494.20;;;9.40;37.10
76680;BME280;65597;51.520;-0.224;2023-04-25T00:17:34;101490.42;;;9.43;37.56
76680;BME280;65597;51.520;-0.224;2023-04-25T00:20:00;101488.65;;;9.16;36.93
76680;BME280;65597;51.520;-0.224;2023-04-25T00:22:25;101491.89;;;9.39;38.16
76680;BME280;65597;51.520;-0.224;2023-04-25T00:24:52;101494.59;;;9.38;38.03
76680;BME280;65597;51.520;-0.224;2023-04-25T00:27:16;101494.94;;;9.13;37.24
76680;BME280;65597;51.520;-0.224;2023-04-25T00:29:42;101501.27;;;9.31;37.85
76680;BME280;65597;51.520;-0.224;2023-04-25T00:32:07;101504.33;;;9.09;37.10
76680;BME280;65597;51.520;-0.224;2023-04-25T00:34:32;101504.13;;;9.07;37.43
76680;BME280;65597;51.520;-0.224;2023-04-25T00:37:04;101503.92;;;9.02;37.76
76680;BME280;65597;51.520;-0.224;2023-04-25T00:39:23;101507.50;;;9.03;36.59
76680;BME280;65597;51.520;-0.224;2023-04-25T00:41:50;101508.98;;;9.19;37.59
76680;BME280;65597;51.520;-0.224;2023-04-25T00:44:15;101508.02;;;9.04;38.00
76680;BME280;65597;51.520;-0.224;2023-04-25T00:46:40;101511.48;;;9.10;38.12
76680;BME280;65597;51.520;-0.224;2023-04-25T00:49:06;101511.48;;;8.86;37.63
76680;BME280;65597;51.520;-0.224;2023-04-25T00:51:32;101507.63;;;9.00;37.55
76680;BME280;65597;51.520;-0.224;2023-04-25T00:53:57;101510.97;;;9.02;37.98
76680;BME280;65597;51.520;-0.224;2023-04-25T00:56:22;101515.48;;;8.82;38.02
76680;BME280;65597;51.520;-0.224;2023-04-25T00:58:48;101519.69;;;8.62;36.69
76680;BME280;65597;51.520;-0.224;2023-04-25T01:01:14;101520.61;;;8.86;37.77
76680;BME280;65597;51.520;-0.224;2023-04-25T01:03:39;101526.14;;;8.73;37.20
76680;BME280;65597;51.520;-0.224;2023-04-25T01:06:04;101520.13;;;8.85;37.46
76680;BME280;65597;51.520;-0.224;2023-04-25T01:08:29;101512.42;;;8.90;37.99
76680;BME280;65597;51.520;-0.224;2023-04-25T01:10:54;101508.60;;;8.74;37.05
76680;BME280;65597;51.520;-0.224;2023-04-25T01:13:22;101507.78;;;9.09;36.89
76680;BME280;65597;51.520;-0.224;2023-04-25T01:15:46;101513.34;;;8.71;37.43
76680;BME280;65597;51.520;-0.224;2023-04-25T01:18:12;101517.43;;;8.84;36.89
76680;BME280;65597;51.520;-0.224;2023-04-25T01:20:37;101520.72;;;8.81;36.48
76680;BME280;65597;51.520;-0.224;2023-04-25T01:23:02;101522.77;;;8.81;37.29
76680;BME280;65597;51.520;-0.224;2023-04-25T01:25:27;101521.51;;;8.55;37.19
76680;BME280;65597;51.520;-0.224;2023-04-25T01:27:52;101519.56;;;8.76;37.22
76680;BME280;65597;51.520;-0.224;2023-04-25T01:30:18;101517.67;;;8.80;36.62
76680;BME280;65597;51.520;-0.224;2023-04-25T01:32:44;101518.24;;;8.67;37.03
76680;BME280;65597;51.520;-0.224;2023-04-25T01:35:11;101522.93;;;8.67;37.50
76680;BME280;65597;51.520;-0.224;2023-04-25T01:37:35;101522.44;;;8.57;37.47
76680;BME280;65597;51.520;-0.224;2023-04-25T01:40:01;101527.75;;;8.61;37.14
76680;BME280;65597;51.520;-0.224;2023-04-25T01:42:26;101531.04;;;8.53;37.46
76680;BME280;65597;51.520;-0.224;2023-04-25T01:44:51;101533.18;;;8.76;36.60
76680;BME280;65597;51.520;-0.224;2023-04-25T01:47:17;101533.89;;;8.65;37.18
76680;BME280;65597;51.520;-0.224;2023-04-25T01:49:44;101537.16;;;8.26;36.34
76680;BME280;65597;51.520;-0.224;2023-04-25T01:52:08;101541.03;;;8.19;37.75
76680;BME280;65597;51.520;-0.224;2023-04-25T01:54:33;101541.34;;;8.22;37.57
76680;BME280;65597;51.520;-0.224;2023-04-25T01:56:59;101551.41;;;8.35;36.50
76680;BME280;65597;51.520;-0.224;2023-04-25T01:59:24;101549.43;;;8.13;36.99
76680;BME280;65597;51.520;-0.224;2023-04-25T02:01:49;101545.51;;;8.54;36.30
76680;BME280;65597;51.520;-0.224;2023-04-25T02:04:15;101543.45;;;8.17;37.63
76680;BME280;65597;51.520;-0.224;2023-04-25T02:06:40;101540.74;;;8.52;37.11
76680;BME280;65597;51.520;-0.224;2023-04-25T02:09:06;101543.12;;;8.31;36.58
76680;BME280;65597;51.520;-0.224;2023-04-25T02:11:31;101539.18;;;8.59;37.31
76680;BME280;65597;51.520;-0.224;2023-04-25T02:13:59;101543.72;;;8.28;37.02
76680;BME280;65597;51.520;-0.224;2023-04-25T02:16:23;101545.23;;;8.29;36.82
76680;BME280;65597;51.520;-0.224;2023-04-25T02:18:48;101547.13;;;8.13;37.26
76680;BME280;65597;51.520;-0.224;2023-04-25T02:21:14;101548.53;;;8.39;37.03
76680;BME280;65597;51.520;-0.224;2023-04-25T02:23:39;101550.59;;;8.19;36.37
76680;BME280;65597;51.520;-0.224;2023-04-25T02:26:05;101552.54;;;8.02;36.39
76680;BME280;65597;51.520;-0.224;2023-04-25T02:28:30;101552.82;;;8.01;37.15
76680;BME280;65597;51.520;-0.224;2023-04-25T02:30:55;101553.50;;;7.74;36.53
76680;BME280;65597;51.520;-0.224;2023-04-25T02:33:21;101552.90;;;7.79;36.90
76680;BME280;65597;51.520;-0.224;2023-04-25T02:35:46;101553.57;;;7.78;36.58
76680;BME280;65597;51.520;-0.224;2023-04-25T02:38:13;101555.05;;;7.83;36.65
76680;BME280;65597;51.520;-0.224;2023-04-25T02:40:37;101557.43;;;7.56;36.53
76680;BME280;65597;51.520;-0.224;2023-04-25T02:43:03;101555.57;;;7.99;37.12
76680;BME280;65597;51.520;-0.224;2023-04-25T02:45:28;101555.58;;;8.03;36.51
76680;BME280;65597;51.520;-0.224;2023-04-25T02:47:53;101559.26;;;8.01;36.64
76680;BME280;65597;51.520;-0.224;2023-04-25T02:50:19;101558.83;;;7.62;36.58
76680;BME280;65597;51.520;-0.224;2023-04-25T02:52:44;101556.32;;;7.91;37.43
76680;BME280;65597;51.520;-0.224;2023-04-25T02:55:10;101557.66;;;7.98;37.33
76680;BME280;65597;51.520;-0.224;2023-04-25T02:57:35;101561.60;;;7.68;36.41
76680;BME280;65597;51.520;-0.224;2023-04-25T03:00:01;101568.01;;;7.94;36.54
76680;BME280;65597;51.520;-0.224;2023-04-25T03:02:28;101570.75;;;7.94;36.82
76680;BME280;65597;51.520;-0.224;2023-04-25T03:04:52;101568.41;;;7.77;36.41
76680;BME280;65597;51.520;-0.224;2023-04-25T03:07:17;101567.29;;;7.77;36.52
76680;BME280;65597;51.520;-0.224;2023-04-25T03:09:43;101569.05;;;7.38;36.26
76680;BME280;65597;51.520;-0.224;2023-04-25T03:12:08;101569.34;;;7.83;37.04
76680;BME280;65597;51.520;-0.224;2023-04-25T03:14:35;101567.21;;;7.51;36.94
76680;BME280;65597;51.520;-0.224;2023-04-25T03:16:59;101566.00;;;7.79;37.21
76680;BME280;65597;51.520;-0.224;2023-04-25T03:19:25;101570.05;;;7.59;36.61
76680;BME280;65597;51.520;-0.224;2023-04-25T03:21:50;101574.29;;;7.58;36.97
76680;BME280;65597;51.520;-0.224;2023-04-25T03:24:21;101580.25;;;7.87;36.07
76680;BME280;65597;51.520;-0.224;2023-04-25T03:26:43;101581.40;;;7.37;35.93
76680;BME280;65597;51.520;-0.224;2023-04-25T03:29:07;101578.14;;;7.47;36.48
76680;BME280;65597;51.520;-0.224;2023-04-25T03:31:32;101580.08;;;7.76;36.88
76680;BME280;65597;51.520;-0.224;2023-04-25T03:33:58;101580.28;;;7.55;37.12
76680;BME280;65597;51.520;-0.224;2023-04-25T03:36:23;101583.94;;;7.53;36.43
76680;BME280;65597;51.520;-0.224;2023-04-25T03:38:50;101582.52;;;7.45;37.11
76680;BME280;65597;51.520;-0.224;2023-04-25T03:41:14;101584.91;;;7.65;36.34
76680;BME280;65597;51.520;-0.224;2023-04-25T03:43:40;101588.10;;;7.57;37.02
76680;BME280;65597;51.520;-0.224;2023-04-25T03:46:10;101590.02;;;7.54;36.43
76680;BME280;65597;51.520;-0.224;2023-04-25T03:48:31;101592.05;;;7.40;36.52
76680;BME280;65597;51.520;-0.224;2023-04-25T03:50:57;101595.36;;;7.59;36.82
76680;BME280;65597;51.520;-0.224;2023-04-25T03:53:22;101595.41;;;7.41;36.58
76680;BME280;65597;51.520;-0.224;2023-04-25T03:55:47;101600.08;;;7.45;36.15
76680;BME280;65597;51.520;-0.224;2023-04-25T03:58:13;101597.89;;;7.44;37.01
76680;BME280;65597;51.520;-0.224;2023-04-25T04:00:39;101596.94;;;7.39;36.18
76680;BME280;65597;51.520;-0.224;2023-04-25T04:03:04;101600.87;;;7.70;36.83
76680;BME280;65597;51.520;-0.224;2023-04-25T04:05:30;101601.00;;;7.75;37.00
76680;BME280;65597;51.520;-0.224;2023-04-25T04:07:55;101604.80;;;7.52;36.81
76680;BME280;65597;51.520;-0.224;2023-04-25T04:10:22;101607.64;;;7.43;36.20
76680;BME280;65597;51.520;-0.224;2023-04-25T04:12:46;101614.03;;;7.27;35.92
76680;BME280;65597;51.520;-0.224;2023-04-25T04:15:13;101614.45;;;7.28;35.93
76680;BME280;65597;51.520;-0.224;2023-04-25T04:17:37;101614.60;;;7.64;36.05
76680;BME280;65597;51.520;-0.224;2023-04-25T04:20:03;101616.38;;;7.61;35.92
76680;BME280;65597;51.520;-0.224;2023-04-25T04:22:27;101623.97;;;7.01;36.00
76680;BME280;65597;51.520;-0.224;2023-04-25T04:24:58;101624.87;;;6.74;36.13
76680;BME280;65597;51.520;-0.224;2023-04-25T04:27:22;101626.33;;;6.84;36.55
76680;BME280;65597;51.520;-0.224;2023-04-25T04:29:44;101633.97;;;6.95;36.43
76680;BME280;65597;51.520;-0.224;2023-04-25T04:32:10;101638.59;;;7.10;35.96
76680;BME280;65597;51.520;-0.224;2023-04-25T04:34:36;101646.45;;;6.84;36.53
76680;BME280;65597;51.520;-0.224;2023-04-25T04:37:01;101647.75;;;6.49;36.70
76680;BME280;65597;51.520;-0.224;2023-04-25T04:39:27;101655.25;;;6.39;37.05
76680;BME280;65597;51.520;-0.224;2023-04-25T04:41:52;101659.54;;;6.37;37.19
76680;BME280;65597;51.520;-0.224;2023-04-25T04:44:17;101658.45;;;6.56;37.23
76680;BME280;65597;51.520;-0.224;2023-04-25T04:46:43;101661.90;;;6.28;37.21
76680;BME280;65597;51.520;-0.224;2023-04-25T04:49:08;101665.70;;;6.35;37.43
76680;BME280;65597;51.520;-0.224;2023-04-25T04:51:35;101669.80;;;6.06;37.80
76680;BME280;65597;51.520;-0.224;2023-04-25T04:53:59;101670.92;;;6.05;37.74
76680;BME280;65597;51.520;-0.224;2023-04-25T04:56:24;101665.19;;;6.41;37.73
76680;BME280;65597;51.520;-0.224;2023-04-25T04:58:49;101670.55;;;6.34;37.56
76680;BME280;65597;51.520;-0.224;2023-04-25T05:01:15;101668.68;;;6.58;37.97
76680;BME280;65597;51.520;-0.224;2023-04-25T05:03:42;101665.11;;;6.71;38.14
76680;BME280;65597;51.520;-0.224;2023-04-25T05:06:06;101666.20;;;6.88;37.78
76680;BME280;65597;51.520;-0.224;2023-04-25T05:08:31;101669.23;;;6.85;36.89
76680;BME280;65597;51.520;-0.224;2023-04-25T05:10:56;101675.32;;;6.91;36.64
76680;BME280;65597;51.520;-0.224;2023-04-25T05:13:21;101684.40;;;6.56;36.78
76680;BME280;65597;51.520;-0.224;2023-04-25T05:15:48;101689.77;;;6.55;37.00
76680;BME280;65597;51.520;-0.224;2023-04-25T05:18:12;101695.01;;;6.68;36.97
76680;BME280;65597;51.520;-0.224;2023-04-25T05:20:38;101701.00;;;6.58;37.02
76680;BME280;65597;51.520;-0.224;2023-04-25T05:23:04;101705.14;;;6.53;36.79
76680;BME280;65597;51.520;-0.224;2023-04-25T05:25:29;101701.13;;;6.40;36.99
76680;BME280;65597;51.520;-0.224;2023-04-25T05:27:55;101708.88;;;6.33;37.07
76680;BME280;65597;51.520;-0.224;2023-04-25T05:30:20;101717.38;;;6.08;37.22
76680;BME280;65597;51.520;-0.224;2023-04-25T05:32:46;101727.69;;;6.30;37.13
76680;BME280;65597;51.520;-0.224;2023-04-25T05:35:11;101730.05;;;6.25;37.30
76680;BME280;65597;51.520;-0.224;2023-04-25T05:37:37;101732.92;;;6.23;37.03
76680;BME280;65597;51.520;-0.224;2023-04-25T05:40:05;101735.32;;;6.44;36.89
76680;BME280;65597;51.520;-0.224;2023-04-25T05:42:28;101741.21;;;6.34;37.08
76680;BME280;65597;51.520;-0.224;2023-04-25T05:44:53;101739.40;;;5.95;37.52
76680;BME280;65597;51.520;-0.224;2023-04-25T05:47:19;101741.61;;;6.32;37.35
76680;BME280;65597;51.520;-0.224;2023-04-25T05:49:45;101735.82;;;6.43;37.24
76680;BME280;65597;51.520;-0.224;2023-04-25T05:52:12;101729.52;;;6.53;36.92
76680;BME280;65597;51.520;-0.224;2023-04-25T05:54:36;101732.53;;;6.66;37.04
76680;BME280;65597;51.520;-0.224;2023-04-25T05:57:02;101736.76;;;6.43;37.22
76680;BME280;65597;51.520;-0.224;2023-04-25T05:59:27;101742.19;;;6.44;37.07
76680;BME280;65597;51.520;-0.224;2023-04-25T06:01:53;101745.31;;;6.45;36.94
76680;BME280;65597;51.520;-0.224;2023-04-25T06:04:18;101747.08;;;6.69;37.39
76680;BME280;65597;51.520;-0.224;2023-04-25T06:06:45;101748.77;;;6.22;37.16
76680;BME280;65597;51.520;-0.224;2023-04-25T06:09:09;101748.91;;;6.64;37.13
76680;BME280;65597;51.520;-0.224;2023-04-25T06:11:34;101750.80;;;6.92;37.03
76680;BME280;65597;51.520;-0.224;2023-04-25T06:14:00;101750.69;;;7.13;37.44
76680;BME280;65597;51.520;-0.224;2023-04-25T06:16:27;101751.27;;;7.27;37.66
76680;BME280;65597;51.520;-0.224;2023-04-25T06:18:51;101756.39;;;6.97;37.51
76680;BME280;65597;51.520;-0.224;2023-04-25T06:21:18;101760.63;;;7.16;37.03
76680;BME280;65597;51.520;-0.224;2023-04-25T06:23:42;101763.33;;;7.47;36.64
76680;BME280;65597;51.520;-0.224;2023-04-25T06:26:13;101764.93;;;7.60;36.02
76680;BME280;65597;51.520;-0.224;2023-04-25T06:28:35;101767.48;;;7.26;36.50
76680;BME280;65597;51.520;-0.224;2023-04-25T06:30:59;101764.62;;;7.52;35.89
76680;BME280;65597;51.520;-0.224;2023-04-25T06:33:24;101765.63;;;7.60;36.86
76680;BME280;65597;51.520;-0.224;2023-04-25T06:35:50;101774.60;;;7.86;35.51
76680;BME280;65597;51.520;-0.224;2023-04-25T06:38:15;101774.01;;;7.49;35.54
76680;BME280;65597;51.520;-0.224;2023-04-25T06:40:41;101775.15;;;7.65;35.51
76680;BME280;65597;51.520;-0.224;2023-04-25T06:43:06;101775.16;;;7.69;36.02
76680;BME280;65597;51.520;-0.224;2023-04-25T06:45:31;101771.60;;;7.68;35.71
76680;BME280;65597;51.520;-0.224;2023-04-25T06:47:57;101774.78;;;7.54;36.16
76680;BME280;65597;51.520;-0.224;2023-04-25T06:50:22;101779.95;;;7.42;40.54
76680;BME280;65597;51.520;-0.224;2023-04-25T06:52:49;101784.13;;;7.47;35.71
76680;BME280;65597;51.520;-0.224;2023-04-25T06:55:13;101786.94;;;7.72;35.33
76680;BME280;65597;51.520;-0.224;2023-04-25T06:57:39;101785.13;;;7.82;36.05
76680;BME280;65597;51.520;-0.224;2023-04-25T07:00:05;101779.04;;;8.19;35.51
76680;BME280;65597;51.520;-0.224;2023-04-25T07:02:30;101773.88;;;7.91;35.60
76680;BME280;65597;51.520;-0.224;2023-04-25T07:04:55;101777.24;;;8.01;35.40
76680;BME280;65597;51.520;-0.224;2023-04-25T07:07:20;101781.51;;;8.10;35.50
76680;BME280;65597;51.520;-0.224;2023-04-25T07:09:46;101780.49;;;8.21;35.98
76680;BME280;65597;51.520;-0.224;2023-04-25T07:12:12;101784.86;;;8.13;35.38
76680;BME280;65597;51.520;-0.224;2023-04-25T07:14:37;101795.53;;;7.74;34.81
76680;BME280;65597;51.520;-0.224;2023-04-25T07:17:04;101791.63;;;8.07;34.76
76680;BME280;65597;51.520;-0.224;2023-04-25T07:19:28;101788.24;;;8.01;34.94
76680;BME280;65597;51.520;-0.224;2023-04-25T07:21:53;101792.98;;;7.94;35.11
76680;BME280;65597;51.520;-0.224;2023-04-25T07:24:19;101800.97;;;7.92;34.95
76680;BME280;65597;51.520;-0.224;2023-04-25T07:26:44;101808.71;;;8.03;35.82
76680;BME280;65597;51.520;-0.224;2023-04-25T07:29:12;101815.40;;;7.98;35.27
76680;BME280;65597;51.520;-0.224;2023-04-25T07:31:35;101816.96;;;7.79;34.90
76680;BME280;65597;51.520;-0.224;2023-04-25T07:34:00;101816.75;;;7.79;34.94
76680;BME280;65597;51.520;-0.224;2023-04-25T07:36:26;101814.62;;;8.19;34.67
76680;BME280;65597;51.520;-0.224;2023-04-25T07:38:52;101815.51;;;8.24;34.63
76680;BME280;65597;51.520;-0.224;2023-04-25T07:41:18;101820.17;;;7.47;35.52
76680;BME280;65597;51.520;-0.224;2023-04-25T07:43:43;101820.02;;;8.19;35.08
76680;BME280;65597;51.520;-0.224;2023-04-25T07:46:08;101825.37;;;8.01;34.97
76680;BME280;65597;51.520;-0.224;2023-04-25T07:48:34;101824.73;;;7.96;35.70
76680;BME280;65597;51.520;-0.224;2023-04-25T07:50:59;101822.88;;;7.54;35.00
76680;BME280;65597;51.520;-0.224;2023-04-25T07:53:26;101828.44;;;7.83;34.99
76680;BME280;65597;51.520;-0.224;2023-04-25T07:55:50;101830.64;;;7.78;35.06
76680;BME280;65597;51.520;-0.224;2023-04-25T07:58:16;101838.37;;;7.95;34.95
76680;BME280;65597;51.520;-0.224;2023-04-25T08:00:41;101841.14;;;7.96;34.95
76680;BME280;65597;51.520;-0.224;2023-04-25T08:03:09;101845.92;;;7.48;34.73
76680;BME280;65597;51.520;-0.224;2023-04-25T08:05:32;101849.64;;;7.87;35.03
76680;BME280;65597;51.520;-0.224;2023-04-25T08:07:58;101849.28;;;7.91;34.92
76680;BME280;65597;51.520;-0.224;2023-04-25T08:10:23;101850.48;;;7.90;34.81
76680;BME280;65597;51.520;-0.224;2023-04-25T08:12:49;101850.03;;;7.69;34.75
76680;BME280;65597;51.520;-0.224;2023-04-25T08:15:14;101850.69;;;8.15;35.18
76680;BME280;65597;51.520;-0.224;2023-04-25T08:17:40;101853.59;;;7.41;34.59
76680;BME280;65597;51.520;-0.224;2023-04-25T08:20:06;101856.41;;;7.91;35.51
76680;BME280;65597;51.520;-0.224;2023-04-25T08:22:31;101856.60;;;8.30;34.87
76680;BME280;65597;51.520;-0.224;2023-04-25T08:24:56;101856.21;;;8.27;35.27
76680;BME280;65597;51.520;-0.224;2023-04-25T08:27:22;101860.09;;;8.17;34.54
76680;BME280;65597;51.520;-0.224;2023-04-25T08:29:48;101867.69;;;8.26;34.46
76680;BME280;65597;51.520;-0.224;2023-04-25T08:32:12;101868.11;;;8.14;34.37
76680;BME280;65597;51.520;-0.224;2023-04-25T08:34:37;101867.71;;;8.23;34.21
76680;BME280;65597;51.520;-0.224;2023-04-25T08:37:03;101864.37;;;8.45;33.62
76680;BME280;65597;51.520;-0.224;2023-04-25T08:39:28;101861.60;;;8.62;33.82
76680;BME280;65597;51.520;-0.224;2023-04-25T08:41:55;101863.40;;;8.08;34.61
76680;BME280;65597;51.520;-0.224;2023-04-25T08:44:20;101864.33;;;8.42;33.84
76680;BME280;65597;51.520;-0.224;2023-04-25T08:46:46;101866.54;;;8.38;33.45
76680;BME280;65597;51.520;-0.224;2023-04-25T08:49:11;101865.96;;;8.49;33.12
76680;BME280;65597;51.520;-0.224;2023-04-25T08:51:39;101859.69;;;8.33;33.48
76680;BME280;65597;51.520;-0.224;2023-04-25T08:54:08;101861.41;;;8.35;33.36
76680;BME280;65597;51.520;-0.224;2023-04-25T08:56:27;101858.99;;;8.29;32.96
76680;BME280;65597;51.520;-0.224;2023-04-25T08:58:52;101858.20;;;8.26;33.93
76680;BME280;65597;51.520;-0.224;2023-04-25T09:01:17;101857.31;;;8.44;33.37
76680;BME280;65597;51.520;-0.224;2023-04-25T09:03:43;101853.52;;;8.52;33.21
76680;BME280;65597;51.520;-0.224;2023-04-25T09:06:11;101854.65;;;8.41;33.82
76680;BME280;65597;51.520;-0.224;2023-04-25T09:08:33;101856.76;;;6.98;34.50
76680;BME280;65597;51.520;-0.224;2023-04-25T09:10:59;101862.44;;;7.71;33.32
76680;BME280;65597;51.520;-0.224;2023-04-25T09:13:26;101864.66;;;8.27;32.78
76680;BME280;65597;51.520;-0.224;2023-04-25T09:15:51;101862.80;;;8.04;32.01
76680;BME280;65597;51.520;-0.224;2023-04-25T09:18:22;101858.32;;;8.15;32.40
76680;BME280;65597;51.520;-0.224;2023-04-25T09:20:42;101860.47;;;8.10;32.24
76680;BME280;65597;51.520;-0.224;2023-04-25T09:23:06;101858.26;;;8.33;32.93
76680;BME280;65597;51.520;-0.224;2023-04-25T09:25:34;101855.62;;;8.56;32.49
76680;BME280;65597;51.520;-0.224;2023-04-25T09:27:57;101858.77;;;8.40;32.85
76680;BME280;65597;51.520;-0.224;2023-04-25T09:30:29;101859.86;;;8.62;32.59
76680;BME280;65597;51.520;-0.224;2023-04-25T09:32:48;101861.62;;;8.78;32.35
76680;BME280;65597;51.520;-0.224;2023-04-25T09:35:23;101857.80;;;8.67;32.34
76680;BME280;65597;51.520;-0.224;2023-04-25T09:37:40;101853.00;;;8.63;32.04
76680;BME280;65597;51.520;-0.224;2023-04-25T09:40:06;101849.72;;;9.02;31.77
76680;BME280;65597;51.520;-0.224;2023-04-25T09:42:33;101855.11;;;8.74;31.82
76680;BME280;65597;51.520;-0.224;2023-04-25T09:44:56;101855.34;;;8.49;32.20
76680;BME280;65597;51.520;-0.224;2023-04-25T09:47:23;101846.47;;;8.76;31.63
76680;BME280;65597;51.520;-0.224;2023-04-25T09:49:47;101843.19;;;8.67;30.76
76680;BME280;65597;51.520;-0.224;2023-04-25T09:52:15;101849.57;;;8.89;31.61
76680;BME280;65597;51.520;-0.224;2023-04-25T09:54:39;101851.78;;;9.09;30.70
76680;BME280;65597;51.520;-0.224;2023-04-25T09:57:10;101851.79;;;8.55;29.48
76680;BME280;65597;51.520;-0.224;2023-04-25T09:59:31;101847.93;;;8.82;29.78
76680;BME280;65597;51.520;-0.224;2023-04-25T10:01:55;101842.28;;;8.92;30.25
76680;BME280;65597;51.520;-0.224;2023-04-25T10:04:23;101845.30;;;9.26;30.78
76680;BME280;65597;51.520;-0.224;2023-04-25T10:06:49;101845.63;;;8.75;30.75
76680;BME280;65597;51.520;-0.224;2023-04-25T10:09:11;101844.75;;;9.44;30.81
76680;BME280;65597;51.520;-0.224;2023-04-25T10:11:36;101847.42;;;9.65;29.85
76680;BME280;65597;51.520;-0.224;2023-04-25T10:14:02;101846.35;;;9.08;29.38
76680;BME280;65597;51.520;-0.224;2023-04-25T10:16:28;101847.08;;;9.46;29.72
76680;BME280;65597;51.520;-0.224;2023-04-25T10:18:53;101853.42;;;9.20;30.06
76680;BME280;65597;51.520;-0.224;2023-04-25T10:21:18;101848.94;;;9.31;28.70
76680;BME280;65597;51.520;-0.224;2023-04-25T10:23:43;101847.17;;;9.44;28.58
76680;BME280;65597;51.520;-0.224;2023-04-25T10:26:09;101848.80;;;9.76;28.47
76680;BME280;65597;51.520;-0.224;2023-04-25T10:31:02;101851.33;;;9.77;28.10
76680;BME280;65597;51.520;-0.224;2023-04-25T10:33:32;101848.42;;;9.82;27.40
76680;BME280;65597;51.520;-0.224;2023-04-25T10:35:50;101849.43;;;10.19;26.67
76680;BME280;65597;51.520;-0.224;2023-04-25T10:38:16;101846.78;;;9.69;27.16
76680;BME280;65597;51.520;-0.224;2023-04-25T10:47:58;101854.76;;;9.62;27.98
76680;BME280;65597;51.520;-0.224;2023-04-25T10:52:49;101856.50;;;10.08;26.11
76680;BME280;65597;51.520;-0.224;2023-04-25T10:55:17;101855.12;;;10.32;25.45
76680;BME280;65597;51.520;-0.224;2023-04-25T10:57:41;101855.30;;;10.19;25.91
76680;BME280;65597;51.520;-0.224;2023-04-25T11:00:09;101860.16;;;9.98;26.27
76680;BME280;65597;51.520;-0.224;2023-04-25T11:02:31;101854.52;;;9.56;26.98
76680;BME280;65597;51.520;-0.224;2023-04-25T11:04:56;101856.18;;;9.21;26.95
76680;BME280;65597;51.520;-0.224;2023-04-25T11:07:31;101854.46;;;9.33;27.35
76680;BME280;65597;51.520;-0.224;2023-04-25T11:09:47;101854.04;;;9.62;27.85
76680;BME280;65597;51.520;-0.224;2023-04-25T11:12:18;101857.46;;;9.89;27.86
76680;BME280;65597;51.520;-0.224;2023-04-25T11:14:38;101853.04;;;9.81;27.33
76680;BME280;65597;51.520;-0.224;2023-04-25T11:17:04;101856.07;;;9.47;27.81
76680;BME280;65597;51.520;-0.224;2023-04-25T11:19:30;101855.77;;;9.80;27.31
76680;BME280;65597;51.520;-0.224;2023-04-25T11:21:55;101855.58;;;10.20;27.62
76680;BME280;65597;51.520;-0.224;2023-04-25T11:24:25;101845.01;;;10.24;27.58
76680;BME280;65597;51.520;-0.224;2023-04-25T11:26:47;101844.07;;;10.16;26.96
76680;BME280;65597;51.520;-0.224;2023-04-25T11:29:11;101840.00;;;10.25;26.74
76680;BME280;65597;51.520;-0.224;2023-04-25T11:31:37;101840.63;;;10.25;27.64
76680;BME280;65597;51.520;-0.224;2023-04-25T11:34:02;101838.90;;;10.02;28.36
76680;BME280;65597;51.520;-0.224;2023-04-25T11:36:28;101841.34;;;10.25;27.74
76680;BME280;65597;51.520;-0.224;2023-04-25T11:38:53;101843.37;;;10.51;26.82
76680;BME280;65597;51.520;-0.224;2023-04-25T11:41:18;101845.71;;;10.98;27.16
76680;BME280;65597;51.520;-0.224;2023-04-25T11:43:45;101849.47;;;10.46;27.18
76680;BME280;65597;51.520;-0.224;2023-04-25T11:46:09;101846.56;;;10.50;26.52
76680;BME280;65597;51.520;-0.224;2023-04-25T11:48:37;101848.96;;;10.27;27.00
76680;BME280;65597;51.520;-0.224;2023-04-25T11:51:00;101853.26;;;10.57;25.93
76680;BME280;65597;51.520;-0.224;2023-04-25T11:53:26;101850.90;;;11.02;26.53
76680;BME280;65597;51.520;-0.224;2023-04-25T11:55:52;101851.21;;;11.15;26.88
76680;BME280;65597;51.520;-0.224;2023-04-25T11:58:17;101850.44;;;11.65;25.68
76680;BME280;65597;51.520;-0.224;2023-04-25T12:00:42;101847.75;;;11.32;24.26
76680;BME280;65597;51.520;-0.224;2023-04-25T12:03:09;101843.25;;;11.64;23.73
76680;BME280;65597;51.520;-0.224;2023-04-25T12:05:33;101851.67;;;12.12;24.03
76680;BME280;65597;51.520;-0.224;2023-04-25T12:10:24;101850.62;;;11.37;24.64
76680;BME280;65597;51.520;-0.224;2023-04-25T12:12:49;101856.23;;;11.20;23.85
76680;BME280;65597;51.520;-0.224;2023-04-25T12:15:16;101857.21;;;11.43;24.35
76680;BME280;65597;51.520;-0.224;2023-04-25T12:17:40;101853.28;;;11.52;24.89
76680;BME280;65597;51.520;-0.224;2023-04-25T12:20:10;101854.25;;;11.21;24.76
76680;BME280;65597;51.520;-0.224;2023-04-25T12:22:31;101854.61;;;11.00;24.80
76680;BME280;65597;51.520;-0.224;2023-04-25T12:24:57;101856.15;;;11.16;25.11
76680;BME280;65597;51.520;-0.224;2023-04-25T12:27:25;101857.46;;;11.53;25.22
76680;BME280;65597;51.520;-0.224;2023-04-25T12:29:52;101858.74;;;11.74;24.88
76680;BME280;65597;51.520;-0.224;2023-04-25T12:32:15;101858.92;;;11.38;24.06
76680;BME280;65597;51.520;-0.224;2023-04-25T12:34:38;101855.27;;;11.72;24.56
76680;BME280;65597;51.520;-0.224;2023-04-25T12:37:04;101856.90;;;11.19;22.48
76680;BME280;65597;51.520;-0.224;2023-04-25T12:39:29;101857.78;;;12.10;21.59
76680;BME280;65597;51.520;-0.224;2023-04-25T12:41:55;101853.73;;;12.92;22.39
76680;BME280;65597;51.520;-0.224;2023-04-25T12:44:21;101855.76;;;12.21;22.32
76680;BME280;65597;51.520;-0.224;2023-04-25T12:46:47;101859.67;;;12.85;23.05
76680;BME280;65597;51.520;-0.224;2023-04-25T12:49:11;101862.78;;;12.39;22.50
76680;BME280;65597;51.520;-0.224;2023-04-25T12:51:37;101866.08;;;12.13;23.91